createdAt,value
2018-09-09T00:01:33.827Z,5.00
2018-09-09T00:04:01.970Z,6.60
2018-09-09T00:06:30.130Z,4.30
2018-09-09T00:08:58.297Z,6.47
2018-09-09T00:11:26.486Z,4.93
2018-09-09T00:13:54.632Z,5.47
2018-09-09T00:16:22.764Z,5.73
2018-09-09T00:18:51.053Z,4.90
2018-09-09T00:21:19.282Z,5.20
2018-09-09T00:23:47.389Z,5.83
2018-09-09T00:26:15.529Z,5.80
2018-09-09T00:28:43.724Z,4.90
2018-09-09T00:31:11.913Z,5.90
2018-09-09T00:33:40.139Z,4.60
2018-09-09T00:36:08.261Z,5.30
2018-09-09T00:38:36.413Z,5.13
2018-09-09T00:41:04.891Z,5.43
2018-09-09T00:43:33.041Z,5.17
2018-09-09T00:46:01.212Z,5.20
2018-09-09T00:48:29.785Z,6.20
2018-09-09T00:52:05.749Z,4.63
2018-09-09T00:54:33.908Z,4.40
2018-09-09T00:57:02.049Z,5.37
2018-09-09T00:59:30.264Z,5.87
2018-09-09T01:01:58.491Z,6.60
2018-09-09T01:04:26.660Z,6.33
2018-09-09T01:06:54.821Z,7.40
2018-09-09T01:09:27.237Z,5.23
2018-09-09T01:11:55.393Z,5.30
2018-09-09T01:14:23.590Z,5.53
2018-09-09T01:16:51.757Z,5.00
2018-09-09T01:19:20.001Z,5.53
2018-09-09T01:21:48.180Z,5.10
2018-09-09T01:24:16.316Z,5.37
2018-09-09T01:26:44.478Z,5.00
2018-09-09T01:29:12.657Z,5.10
2018-09-09T01:31:40.816Z,6.10
2018-09-09T01:34:08.964Z,6.10
2018-09-09T01:36:37.135Z,5.27
2018-09-09T01:39:07.040Z,4.40
2018-09-09T01:41:35.193Z,5.00
2018-09-09T01:44:03.371Z,5.40
2018-09-09T01:46:31.528Z,4.67
2018-09-09T01:48:59.683Z,4.30
2018-09-09T01:51:27.834Z,3.93
2018-09-09T01:53:56.004Z,3.83
2018-09-09T01:56:24.201Z,3.97
2018-09-09T01:58:52.334Z,4.73
2018-09-09T02:01:20.521Z,4.73
2018-09-09T02:03:48.656Z,4.73
2018-09-09T02:06:16.808Z,4.53
2018-09-09T02:08:44.984Z,4.50
2018-09-09T02:11:13.145Z,4.03
2018-09-09T02:13:41.295Z,4.33
2018-09-09T02:16:09.508Z,4.00
2018-09-09T02:18:37.660Z,4.40
2018-09-09T02:21:05.843Z,5.00
2018-09-09T02:23:34.008Z,4.37
2018-09-09T02:26:02.169Z,5.83
2018-09-09T02:28:30.337Z,3.77
2018-09-09T02:30:58.524Z,5.60
2018-09-09T02:33:26.675Z,5.67
2018-09-09T02:35:55.909Z,6.67
2018-09-09T02:38:24.122Z,5.57
2018-09-09T02:40:52.265Z,6.43
2018-09-09T02:43:20.448Z,5.60
2018-09-09T02:45:48.621Z,5.90
2018-09-09T02:48:16.798Z,5.07
2018-09-09T02:50:44.976Z,5.40
2018-09-09T02:53:13.137Z,6.47
2018-09-09T02:55:44.246Z,5.13
2018-09-09T02:58:13.495Z,4.73
2018-09-09T03:00:41.620Z,4.60
2018-09-09T03:03:10.033Z,4.00
2018-09-09T03:05:38.284Z,5.20
2018-09-09T03:08:06.823Z,4.77
2018-09-09T03:10:35.017Z,5.37
2018-09-09T03:13:03.156Z,5.87
2018-09-09T03:15:31.341Z,4.67
2018-09-09T03:17:59.514Z,6.53
2018-09-09T03:20:27.672Z,5.50
2018-09-09T03:22:55.832Z,5.23
2018-09-09T03:25:24.004Z,5.13
2018-09-09T03:27:52.155Z,5.10
2018-09-09T03:30:20.445Z,4.83
2018-09-09T03:32:48.584Z,5.73
2018-09-09T03:35:16.717Z,6.67
2018-09-09T03:37:44.904Z,5.50
2018-09-09T03:40:13.085Z,5.27
2018-09-09T03:42:41.209Z,5.50
2018-09-09T03:45:09.403Z,4.97
2018-09-09T03:47:37.524Z,6.00
2018-09-09T03:50:05.674Z,5.17
2018-09-09T03:52:33.836Z,5.60
2018-09-09T03:55:02.000Z,5.90
2018-09-09T03:57:30.192Z,4.80
2018-09-09T03:59:58.336Z,5.03
2018-09-09T04:02:26.496Z,4.30
2018-09-09T04:04:54.718Z,4.70
2018-09-09T04:07:22.853Z,6.07
2018-09-09T04:09:51.037Z,5.23
2018-09-09T04:12:19.190Z,5.13
2018-09-09T04:14:47.345Z,5.63
2018-09-09T04:17:15.522Z,5.80
2018-09-09T04:19:43.673Z,4.60
2018-09-09T04:22:11.834Z,4.70
2018-09-09T04:24:40.029Z,4.30
2018-09-09T04:27:08.211Z,4.50
2018-09-09T04:29:36.428Z,4.90
2018-09-09T04:32:04.628Z,5.10
2018-09-09T04:34:32.773Z,5.35
2018-09-09T04:37:00.971Z,4.50
2018-09-09T04:39:29.217Z,5.10
2018-09-09T04:41:57.360Z,4.80
2018-09-09T04:44:25.548Z,3.87
2018-09-09T04:46:53.707Z,3.80
2018-09-09T04:49:21.892Z,4.20
2018-09-09T04:51:50.068Z,4.43
2018-09-09T04:54:18.510Z,4.40
2018-09-09T04:56:46.695Z,3.70
2018-09-09T04:59:14.973Z,4.00
2018-09-09T05:01:43.166Z,4.83
2018-09-09T05:04:11.312Z,6.53
2018-09-09T05:06:39.483Z,3.47
2018-09-09T05:09:07.929Z,3.90
2018-09-09T05:11:36.125Z,4.00
2018-09-09T05:14:04.317Z,7.33
2018-09-09T05:16:32.511Z,4.70
2018-09-09T05:19:00.660Z,4.83
2018-09-09T05:21:28.865Z,4.30
2018-09-09T05:23:57.040Z,5.07
2018-09-09T05:26:25.205Z,4.50
2018-09-09T05:28:53.397Z,4.20
2018-09-09T05:31:21.600Z,4.50
2018-09-09T05:33:49.980Z,4.70
2018-09-09T05:36:18.152Z,3.50
2018-09-09T05:38:46.508Z,3.90
2018-09-09T05:41:14.668Z,3.40
2018-09-09T05:43:42.905Z,3.20
2018-09-09T05:46:11.084Z,3.67
2018-09-09T05:48:39.239Z,4.17
2018-09-09T05:51:07.712Z,3.33
2018-09-09T05:53:35.896Z,3.60
2018-09-09T05:56:04.036Z,4.10
2018-09-09T05:58:32.276Z,3.80
2018-09-09T06:01:00.436Z,4.03
2018-09-09T06:03:28.573Z,3.90
2018-09-09T06:05:57.033Z,4.13
2018-09-09T06:08:25.172Z,4.10
2018-09-09T06:10:53.735Z,3.70
2018-09-09T06:13:23.121Z,3.10
2018-09-09T06:15:51.345Z,3.27
2018-09-09T06:18:19.578Z,4.33
2018-09-09T06:20:47.724Z,2.83
2018-09-09T06:23:16.119Z,4.57
2018-09-09T06:25:46.017Z,4.23
2018-09-09T06:28:14.344Z,3.97
2018-09-09T06:30:42.522Z,4.07
2018-09-09T06:33:10.704Z,3.67
2018-09-09T06:35:38.885Z,2.97
2018-09-09T06:38:07.051Z,3.77
2018-09-09T06:40:35.190Z,2.97
2018-09-09T06:43:03.431Z,3.40
2018-09-09T06:45:31.605Z,3.13
2018-09-09T06:47:59.779Z,4.17
2018-09-09T06:50:27.921Z,3.10
2018-09-09T06:52:56.103Z,3.77
2018-09-09T06:55:24.639Z,3.13
2018-09-09T06:57:55.017Z,2.93
2018-09-09T07:00:23.154Z,3.53
2018-09-09T07:02:51.460Z,4.53
2018-09-09T07:05:19.657Z,3.00
2018-09-09T07:07:47.811Z,3.57
2018-09-09T07:10:16.009Z,3.23
2018-09-09T07:12:44.164Z,2.87
2018-09-09T07:15:12.337Z,4.20
2018-09-09T07:17:40.530Z,3.00
2018-09-09T07:20:08.733Z,3.43
2018-09-09T07:22:36.977Z,3.50
2018-09-09T07:25:05.182Z,2.47
2018-09-09T07:27:33.464Z,3.27
2018-09-09T07:30:01.764Z,3.70
2018-09-09T07:32:30.852Z,3.37
2018-09-09T07:34:59.043Z,3.13
2018-09-09T07:37:27.292Z,3.77
2018-09-09T07:39:55.404Z,2.80
2018-09-09T07:42:23.618Z,3.67
2018-09-09T07:44:51.932Z,2.30
2018-09-09T07:47:20.084Z,3.00
2018-09-09T07:49:48.269Z,3.00
2018-09-09T07:52:16.404Z,3.90
2018-09-09T07:54:44.565Z,3.27
2018-09-09T07:57:12.826Z,3.40
2018-09-09T07:59:40.986Z,2.90
2018-09-09T08:02:09.159Z,2.70
2018-09-09T08:04:37.388Z,3.50
2018-09-09T08:07:05.573Z,3.43
2018-09-09T08:09:33.743Z,2.40
2018-09-09T08:12:02.009Z,3.47
2018-09-09T08:14:30.256Z,2.63
2018-09-09T08:16:58.493Z,2.90
2018-09-09T08:19:26.645Z,2.90
2018-09-09T08:21:54.975Z,3.30
2018-09-09T08:24:23.137Z,3.27
2018-09-09T08:26:51.334Z,3.07
2018-09-09T08:29:19.513Z,3.37
2018-09-09T08:31:47.684Z,3.10
2018-09-09T08:34:15.979Z,3.23
2018-09-09T08:36:44.173Z,2.25
2018-09-09T08:39:12.837Z,3.13
2018-09-09T08:41:41.499Z,2.20
2018-09-09T08:44:10.536Z,3.03
2018-09-09T08:46:38.911Z,2.40
2018-09-09T08:49:07.074Z,2.50
2018-09-09T08:51:35.460Z,2.43
2018-09-09T08:54:03.629Z,2.17
2018-09-09T08:56:32.028Z,2.10
2018-09-09T08:59:00.184Z,2.67
2018-09-09T09:01:28.344Z,2.83
2018-09-09T09:03:56.536Z,2.80
2018-09-09T09:06:25.467Z,2.67
2018-09-09T09:08:53.588Z,3.10
2018-09-09T09:11:21.797Z,1.57
2018-09-09T09:13:49.980Z,2.20
2018-09-09T09:16:18.105Z,1.53
2018-09-09T09:18:46.371Z,2.50
2018-09-09T09:21:14.563Z,1.80
2018-09-09T09:23:42.856Z,2.17
2018-09-09T09:26:11.025Z,2.20
2018-09-09T09:28:39.148Z,2.12
2018-09-09T09:31:07.374Z,2.50
2018-09-09T09:33:35.517Z,2.40
2018-09-09T09:36:03.729Z,2.03
2018-09-09T09:38:39.184Z,2.60
2018-09-09T09:41:07.358Z,2.00
2018-09-09T09:43:35.545Z,3.30
2018-09-09T09:46:03.729Z,3.37
2018-09-09T09:48:32.832Z,2.97
2018-09-09T09:51:01.008Z,2.07
2018-09-09T09:53:29.193Z,2.20
2018-09-09T09:55:57.347Z,1.63
2018-09-09T09:58:25.541Z,1.93
2018-09-09T10:00:58.624Z,1.40
2018-09-09T10:03:26.869Z,1.60
2018-09-09T10:05:55.003Z,1.17
2018-09-09T10:08:23.377Z,1.63
2018-09-09T10:10:51.601Z,1.10
2018-09-09T10:13:26.501Z,1.10
2018-09-09T10:15:54.643Z,1.30
2018-09-09T10:18:22.807Z,1.87
2018-09-09T10:20:50.977Z,2.53
2018-09-09T10:23:19.158Z,2.00
2018-09-09T10:25:47.291Z,1.97
2018-09-09T10:28:15.489Z,1.27
2018-09-09T10:30:43.630Z,1.77
2018-09-09T10:33:11.820Z,1.70
2018-09-09T10:35:40.335Z,1.57
2018-09-09T10:38:08.551Z,1.33
2018-09-09T10:40:36.695Z,1.37
2018-09-09T10:43:04.876Z,1.60
2018-09-09T10:45:33.109Z,2.10
2018-09-09T10:48:01.335Z,1.63
2018-09-09T10:50:29.524Z,1.70
2018-09-09T10:52:57.660Z,1.50
2018-09-09T10:55:25.864Z,2.40
2018-09-09T10:57:54.173Z,1.83
2018-09-09T11:00:22.336Z,1.17
2018-09-09T11:02:50.505Z,1.47
2018-09-09T11:05:18.680Z,2.00
2018-09-09T11:07:46.880Z,1.77
2018-09-09T11:10:15.017Z,1.10
2018-09-09T11:12:43.251Z,1.98
2018-09-09T11:15:11.362Z,3.13
2018-09-09T11:17:39.509Z,1.57
2018-09-09T11:20:07.701Z,1.40
2018-09-09T11:22:35.893Z,0.97
2018-09-09T11:25:04.073Z,2.00
2018-09-09T11:27:32.243Z,1.40
2018-09-09T11:30:00.416Z,1.40
2018-09-09T11:32:28.541Z,1.10
2018-09-09T11:34:56.709Z,1.77
2018-09-09T11:37:24.910Z,1.77
2018-09-09T11:39:53.101Z,1.60
2018-09-09T11:42:21.241Z,1.40
2018-09-09T11:44:49.496Z,1.40
2018-09-09T11:47:17.618Z,1.73
2018-09-09T11:49:45.827Z,1.43
2018-09-09T11:52:13.977Z,1.97
2018-09-09T11:54:42.144Z,1.23
2018-09-09T11:57:10.333Z,1.20
2018-09-09T11:59:38.506Z,1.43
2018-09-09T12:02:06.731Z,1.07
2018-09-09T12:04:34.852Z,1.20
2018-09-09T12:07:03.044Z,1.07
2018-09-09T12:09:31.209Z,1.93
2018-09-09T12:11:59.431Z,1.40
2018-09-09T12:14:27.593Z,1.57
2018-09-09T12:16:56.190Z,1.10
2018-09-09T12:19:24.364Z,1.00
2018-09-09T12:21:52.475Z,1.00
2018-09-09T12:24:20.640Z,2.00
2018-09-09T12:26:48.788Z,1.43
2018-09-09T12:29:16.937Z,1.30
2018-09-09T12:31:45.128Z,1.30
2018-09-09T12:34:13.301Z,1.43
2018-09-09T12:36:41.561Z,2.60
2018-09-09T12:39:09.977Z,1.30
2018-09-09T12:41:38.562Z,1.30
2018-09-09T12:44:12.469Z,1.40
2018-09-09T12:46:46.062Z,1.33
2018-09-09T12:49:14.227Z,1.30
2018-09-09T12:51:42.483Z,1.40
2018-09-09T12:54:10.684Z,1.50
2018-09-09T12:56:38.898Z,1.37
2018-09-09T12:59:07.049Z,1.30
2018-09-09T13:01:35.205Z,1.67
2018-09-09T13:04:03.448Z,1.50
2018-09-09T13:06:31.616Z,1.13
2018-09-09T13:08:59.846Z,1.30
2018-09-09T13:11:28.056Z,1.00
2018-09-09T13:13:56.201Z,1.40
2018-09-09T13:16:24.384Z,1.50
2018-09-09T13:18:52.568Z,2.33
2018-09-09T13:21:20.750Z,1.20
2018-09-09T13:23:48.920Z,1.00
2018-09-09T13:26:17.088Z,1.50
2018-09-09T13:28:45.317Z,1.33
2018-09-09T13:31:13.459Z,0.90
2018-09-09T13:33:41.809Z,1.00
2018-09-09T13:36:09.971Z,1.57
2018-09-09T13:38:38.127Z,1.13
2018-09-09T13:41:06.353Z,1.20
2018-09-09T13:43:34.593Z,1.13
2018-09-09T13:46:02.793Z,1.23
2018-09-09T13:48:31.247Z,1.00
2018-09-09T13:50:59.535Z,1.47
2018-09-09T13:53:27.686Z,0.93
2018-09-09T13:55:55.875Z,1.10
2018-09-09T13:58:24.100Z,1.30
2018-09-09T14:00:52.324Z,1.27
2018-09-09T14:03:20.558Z,2.20
2018-09-09T14:05:48.732Z,1.30
2018-09-09T14:08:16.904Z,0.77
2018-09-09T14:10:45.073Z,1.20
2018-09-09T14:13:13.222Z,1.47
2018-09-09T14:15:41.389Z,1.10
2018-09-09T14:18:09.564Z,2.10
2018-09-09T14:20:37.737Z,1.13
2018-09-09T14:23:05.912Z,1.20
2018-09-09T14:25:34.188Z,1.23
2018-09-09T14:28:02.406Z,1.10
2018-09-09T14:30:30.668Z,1.73
2018-09-09T14:32:58.841Z,1.10
2018-09-09T14:35:27.009Z,1.20
2018-09-09T14:37:55.320Z,1.30
2018-09-09T14:40:23.521Z,1.10
2018-09-09T14:42:51.652Z,2.67
2018-09-09T14:45:19.842Z,1.20
2018-09-09T14:47:47.991Z,1.67
2018-09-09T14:50:16.174Z,1.40
2018-09-09T14:52:44.384Z,0.97
2018-09-09T14:55:12.565Z,0.90
2018-09-09T14:57:40.793Z,1.37
2018-09-09T15:00:09.348Z,1.40
2018-09-09T15:02:37.562Z,1.40
2018-09-09T15:05:05.720Z,1.47
2018-09-09T15:07:33.854Z,1.20
2018-09-09T15:10:02.038Z,1.40
2018-09-09T15:12:30.184Z,1.60
2018-09-09T15:14:58.344Z,1.10
2018-09-09T15:17:26.517Z,1.70
2018-09-09T15:19:54.718Z,1.00
2018-09-09T15:22:22.893Z,1.13
2018-09-09T15:24:51.580Z,1.30
2018-09-09T15:27:19.756Z,1.50
2018-09-09T15:29:47.930Z,1.23
2018-09-09T15:32:16.126Z,1.23
2018-09-09T15:34:44.261Z,0.97
2018-09-09T15:37:12.443Z,1.63
2018-09-09T15:39:40.622Z,1.97
2018-09-09T15:42:08.752Z,1.40
2018-09-09T15:44:36.905Z,1.10
2018-09-09T15:47:05.084Z,0.90
2018-09-09T15:49:33.275Z,1.50
2018-09-09T15:52:01.528Z,1.60
2018-09-09T15:54:29.611Z,1.80
2018-09-09T15:56:57.768Z,6.20
2018-09-09T15:59:25.932Z,2.27
2018-09-09T16:01:54.141Z,2.90
2018-09-09T16:04:22.303Z,1.50
2018-09-09T16:06:50.452Z,2.17
2018-09-09T16:09:18.617Z,1.90
2018-09-09T16:11:46.800Z,1.47
2018-09-09T16:14:14.964Z,2.57
2018-09-09T16:16:43.178Z,1.73
2018-09-09T16:19:11.324Z,1.40
2018-09-09T16:21:39.476Z,1.30
2018-09-09T16:24:07.653Z,1.20
2018-09-09T16:26:35.803Z,3.10
2018-09-09T16:29:03.952Z,2.70
2018-09-09T16:31:32.209Z,1.97
2018-09-09T16:34:00.365Z,4.50
2018-09-09T16:36:28.657Z,1.73
2018-09-09T16:38:56.807Z,1.43
2018-09-09T16:41:25.005Z,1.03
2018-09-09T16:43:53.184Z,2.30
2018-09-09T16:46:21.373Z,1.87
2018-09-09T16:48:49.833Z,1.57
2018-09-09T16:51:18.007Z,1.10
2018-09-09T16:53:46.155Z,1.30
2018-09-09T16:56:14.328Z,1.83
2018-09-09T16:58:42.458Z,1.32
2018-09-09T17:01:10.632Z,1.90
2018-09-09T17:03:38.917Z,1.30
2018-09-09T17:06:07.271Z,1.23
2018-09-09T17:08:35.430Z,1.33
2018-09-09T17:11:03.615Z,1.30
2018-09-09T17:13:31.765Z,1.93
2018-09-09T17:15:59.915Z,1.30
2018-09-09T17:18:28.085Z,1.10
2018-09-09T17:20:56.244Z,1.00
2018-09-09T17:23:24.496Z,2.10
2018-09-09T17:25:52.664Z,1.13
2018-09-09T17:28:20.847Z,2.60
2018-09-09T17:30:49.017Z,1.97
2018-09-09T17:33:17.177Z,1.60
2018-09-09T17:35:45.308Z,1.77
2018-09-09T17:38:13.443Z,2.07
2018-09-09T17:40:41.756Z,1.40
2018-09-09T17:43:09.996Z,1.20
2018-09-09T17:45:38.169Z,2.40
2018-09-09T17:48:06.347Z,1.80
2018-09-09T17:50:35.433Z,2.73
2018-09-09T17:53:03.579Z,3.00
2018-09-09T17:55:31.792Z,2.10
2018-09-09T17:57:59.912Z,1.90
2018-09-09T18:00:28.048Z,2.60
2018-09-09T18:02:56.431Z,2.07
2018-09-09T18:05:24.583Z,1.93
2018-09-09T18:07:52.799Z,2.50
2018-09-09T18:10:21.034Z,2.20
2018-09-09T18:12:49.173Z,2.00
2018-09-09T18:15:17.325Z,2.73
2018-09-09T18:17:45.569Z,2.00
2018-09-09T18:20:13.724Z,2.50
2018-09-09T18:22:41.909Z,2.80
2018-09-09T18:25:10.084Z,2.20
2018-09-09T18:27:38.255Z,1.83
2018-09-09T18:30:06.465Z,1.87
2018-09-09T18:32:35.346Z,2.20
2018-09-09T18:35:03.551Z,1.90
2018-09-09T18:37:31.672Z,2.67
2018-09-09T18:39:59.841Z,3.73
2018-09-09T18:42:28.046Z,3.60
2018-09-09T18:44:56.229Z,4.13
2018-09-09T18:47:24.357Z,16.83
2018-09-09T18:49:52.658Z,3.70
2018-09-09T18:52:20.805Z,3.23
2018-09-09T18:54:48.978Z,4.87
2018-09-09T18:57:17.164Z,4.13
2018-09-09T18:59:45.321Z,5.30
2018-09-09T19:02:13.488Z,5.23
2018-09-09T19:04:41.672Z,5.53
2018-09-09T19:07:09.958Z,5.37
2018-09-09T19:09:38.080Z,6.07
2018-09-09T19:12:06.233Z,5.70
2018-09-09T19:14:35.345Z,5.47
2018-09-09T19:17:03.483Z,5.53
2018-09-09T19:19:31.636Z,4.67
2018-09-09T19:21:59.817Z,5.00
2018-09-09T19:24:27.953Z,4.70
2018-09-09T19:26:56.101Z,6.20
2018-09-09T19:29:24.289Z,6.67
2018-09-09T19:31:52.436Z,5.00
2018-09-09T19:34:20.608Z,5.67
2018-09-09T19:36:49.854Z,6.23
2018-09-09T19:39:17.992Z,5.57
2018-09-09T19:41:46.130Z,6.70
2018-09-09T19:44:14.535Z,6.93
2018-09-09T19:46:42.605Z,6.73
2018-09-09T19:49:10.791Z,7.30
2018-09-09T19:51:39.171Z,6.37
2018-09-09T19:54:07.335Z,8.50
2018-09-09T19:56:35.525Z,5.80
2018-09-09T19:59:03.684Z,4.50
2018-09-09T20:01:31.837Z,4.57
2018-09-09T20:04:00.040Z,5.20
2018-09-09T20:06:28.220Z,5.60
2018-09-09T20:08:56.393Z,5.37
2018-09-09T20:11:24.544Z,5.53
2018-09-09T20:13:52.721Z,6.00
2018-09-09T20:16:20.893Z,6.87
2018-09-09T20:18:49.036Z,5.60
2018-09-09T20:21:17.220Z,6.40
2018-09-09T20:23:45.665Z,6.47
2018-09-09T20:26:13.805Z,5.80
2018-09-09T20:28:41.978Z,5.87
2018-09-09T20:31:10.149Z,5.90
2018-09-09T20:33:38.404Z,6.97
2018-09-09T20:36:06.796Z,5.70
2018-09-09T20:38:35.731Z,6.63
2018-09-09T20:41:03.875Z,7.77
2018-09-09T20:43:32.061Z,7.33
2018-09-09T20:46:00.246Z,6.87
2018-09-09T20:48:28.411Z,7.80
2018-09-09T20:50:56.561Z,6.53
2018-09-09T20:53:24.821Z,5.27
2018-09-09T20:55:53.009Z,5.80
2018-09-09T20:58:21.161Z,5.57
2018-09-09T21:00:49.320Z,5.43
2018-09-09T21:03:17.470Z,4.93
2018-09-09T21:05:45.613Z,5.30
2018-09-09T21:08:13.792Z,5.80
2018-09-09T21:10:41.936Z,5.20
2018-09-09T21:13:10.112Z,5.00
2018-09-09T21:15:38.273Z,3.97
2018-09-09T21:18:06.448Z,4.77
2018-09-09T21:20:35.525Z,6.27
2018-09-09T21:23:03.660Z,5.57
2018-09-09T21:25:31.825Z,4.30
2018-09-09T21:28:00.173Z,5.60
2018-09-09T21:30:28.351Z,3.63
2018-09-09T21:32:56.497Z,4.33
2018-09-09T21:35:24.651Z,4.97
2018-09-09T21:37:52.938Z,3.17
2018-09-09T21:40:21.154Z,3.83
2018-09-09T21:42:49.273Z,3.00
2018-09-09T21:45:17.432Z,3.53
2018-09-09T21:47:45.589Z,3.13
2018-09-09T21:50:13.771Z,3.60
2018-09-09T21:52:41.934Z,2.83
2018-09-09T21:55:10.080Z,2.70
2018-09-09T21:57:38.248Z,3.30
2018-09-09T22:00:08.836Z,3.07
2018-09-09T22:02:37.030Z,2.77
2018-09-09T22:05:05.238Z,3.20
2018-09-09T22:07:33.375Z,3.10
2018-09-09T22:10:01.507Z,4.00
2018-09-09T22:12:29.673Z,3.27
2018-09-09T22:14:57.812Z,2.10
2018-09-09T22:17:25.967Z,2.63
2018-09-09T22:19:54.134Z,2.47
2018-09-09T22:22:22.296Z,2.93
2018-09-09T22:24:50.476Z,3.30
2018-09-09T22:27:18.649Z,2.60
2018-09-09T22:29:46.800Z,2.90
2018-09-09T22:32:14.995Z,3.07
2018-09-09T22:34:43.164Z,2.27
2018-09-09T22:37:11.341Z,2.73
2018-09-09T22:39:39.545Z,2.80
2018-09-09T22:42:07.701Z,2.50
2018-09-09T22:44:35.893Z,2.83
2018-09-09T22:47:04.064Z,3.50
2018-09-09T22:49:32.229Z,3.20
2018-09-09T22:52:00.383Z,2.87
2018-09-09T22:54:28.555Z,2.40
2018-09-09T22:56:56.696Z,2.47
2018-09-09T22:59:24.873Z,3.07
2018-09-09T23:01:53.065Z,2.50
2018-09-09T23:04:21.221Z,3.33
2018-09-09T23:06:49.381Z,2.57
2018-09-09T23:09:17.551Z,2.90
2018-09-09T23:11:45.693Z,2.83
2018-09-09T23:14:13.850Z,2.10
2018-09-09T23:16:41.978Z,2.57
2018-09-09T23:19:10.120Z,3.67
2018-09-09T23:21:38.265Z,2.90
2018-09-09T23:24:06.431Z,2.80
2018-09-09T23:26:34.604Z,2.40
2018-09-09T23:29:02.780Z,2.30
2018-09-09T23:31:30.917Z,2.67
2018-09-09T23:33:59.083Z,2.60
2018-09-09T23:36:27.232Z,3.13
2018-09-09T23:38:55.384Z,2.80
2018-09-09T23:41:23.749Z,2.73
2018-09-09T23:43:51.902Z,3.00
2018-09-09T23:46:20.050Z,2.40
2018-09-09T23:48:48.218Z,2.47
2018-09-09T23:51:16.369Z,3.00
2018-09-09T23:53:44.524Z,2.67
2018-09-09T23:56:12.693Z,3.47
2018-09-09T23:58:40.848Z,2.50
